Time;durP1;ratioP1;P1;durP2;ratioP2;P2;SDS_P1;SDS_P2;PMS_P1;PMS_P2;Temp;Humidity;BMP_temperature;BMP_pressure;BME280_temperature;BME280_humidity;BME280_pressure;Samples;Min_cycle;Max_cycle;Signal;HPM_P1;HPM_P2
2022/08/25 00:02:05;;;;;;;6.63;3.90;;;21.60;99.90;;;;;;5049601;28;20119;-77
2022/08/25 00:04:31;;;;;;;4.72;4.00;;;21.50;99.90;;;;;;5034218;28;20022;-77
2022/08/25 00:06:57;;;;;;;8.20;4.15;;;21.60;99.90;;;;;;5034405;28;20474;-77
2022/08/25 00:09:25;;;;;;;6.13;4.40;;;21.60;99.90;;;;;;5034342;28;20060;-77
2022/08/25 00:11:51;;;;;;;11.88;4.30;;;21.40;99.90;;;;;;5034332;28;20026;-77
2022/08/25 00:14:24;;;;;;;8.15;4.35;;;21.60;99.90;;;;;;5034159;28;20467;-77
2022/08/25 00:16:49;;;;;;;6.55;4.30;;;21.60;99.90;;;;;;5033903;28;20042;-77
2022/08/25 00:19:21;;;;;;;6.75;4.38;;;21.70;99.90;;;;;;5034217;28;20034;-77
2022/08/25 00:21:47;;;;;;;5.63;3.90;;;21.60;99.90;;;;;;5033976;28;20029;-77
2022/08/25 00:24:15;;;;;;;5.03;3.88;;;21.60;99.90;;;;;;5033872;28;20375;-77
2022/08/25 00:26:42;;;;;;;6.75;4.45;;;21.60;99.90;;;;;;5034347;28;20030;-77
2022/08/25 00:29:09;;;;;;;9.87;4.30;;;21.50;99.90;;;;;;5049058;28;20017;-78
2022/08/25 00:31:35;;;;;;;6.88;3.88;;;21.50;99.90;;;;;;5033703;28;20075;-77
2022/08/25 00:34:01;;;;;;;9.55;3.80;;;21.50;99.90;;;;;;5033652;28;20530;-77
2022/08/25 00:36:27;;;;;;;4.85;4.25;;;21.50;99.90;;;;;;5033632;28;20072;-77
2022/08/25 00:38:54;;;;;;;8.10;3.97;;;21.40;99.90;;;;;;5034260;28;20036;-77
2022/08/25 00:41:23;;;;;;;5.03;3.67;;;21.40;99.90;;;;;;5033644;28;20075;-77
2022/08/25 00:44:03;;;;;;;6.28;4.35;;;21.90;99.90;;;;;;5033516;28;20071;-77
2022/08/25 00:46:46;;;;;;;5.68;4.20;;;21.30;99.90;;;;;;5033398;28;20344;-77
2022/08/25 00:49:22;;;;;;;5.15;4.53;;;21.30;99.90;;;;;;5033990;28;20108;-77
2022/08/25 00:51:57;;;;;;;6.68;3.88;;;21.30;99.90;;;;;;5033967;28;20528;-77
2022/08/25 00:54:27;;;;;;;4.65;3.60;;;21.20;99.90;;;;;;5048747;28;20022;-77
2022/08/25 00:56:55;;;;;;;7.70;3.97;;;21.20;99.90;;;;;;5048979;28;20033;-77
2022/08/25 00:59:23;;;;;;;6.77;4.20;;;21.10;99.90;;;;;;5033703;28;20056;-77
2022/08/25 01:01:50;;;;;;;7.25;4.53;;;21.20;99.90;;;;;;5049864;28;20029;-77
2022/08/25 01:04:16;;;;;;;5.80;4.20;;;21.10;99.90;;;;;;5048532;28;20029;-77
2022/08/25 01:06:45;;;;;;;5.80;4.05;;;21.10;99.90;;;;;;5048511;28;20029;-77
2022/08/25 01:09:15;;;;;;;7.88;4.88;;;21.20;99.90;;;;;;5033227;28;20022;-77
2022/08/25 01:11:43;;;;;;;7.15;4.30;;;21.10;99.90;;;;;;5033237;28;20037;-77
2022/08/25 01:14:10;;;;;;;6.03;4.70;;;21.10;99.90;;;;;;5065428;23;20046;-73
2022/08/25 01:16:38;;;;;;;6.15;4.57;;;24.80;99.90;;;;;;5033033;28;20339;-73
2022/08/25 01:19:05;;;;;;;9.95;5.47;;;22.40;99.90;;;;;;5048555;28;20025;-73
2022/08/25 01:21:41;;;;;;;8.23;4.47;;;21.00;99.90;;;;;;5033306;28;20018;-73
2022/08/25 01:24:11;;;;;;;7.65;4.40;;;21.00;99.90;;;;;;5033289;28;20524;-74
2022/08/25 01:26:36;;;;;;;8.93;5.00;;;21.00;99.90;;;;;;5033441;28;20025;-74
2022/08/25 01:29:21;;;;;;;6.03;4.57;;;21.00;99.90;;;;;;5033100;28;20072;-73
2022/08/25 01:31:53;;;;;;;6.90;4.93;;;20.90;99.90;;;;;;5033222;28;20026;-73
2022/08/25 01:34:20;;;;;;;7.95;4.95;;;20.90;99.90;;;;;;5031777;28;20017;-74
2022/08/25 01:36:46;;;;;;;4.30;3.88;;;20.90;99.90;;;;;;5032961;28;20025;-74
2022/08/25 01:39:13;;;;;;;10.13;4.40;;;20.90;99.90;;;;;;5032954;28;20456;-73
2022/08/25 01:41:44;;;;;;;5.78;4.65;;;20.80;99.90;;;;;;5031771;28;20118;-73
2022/08/25 01:44:11;;;;;;;7.82;3.58;;;20.80;99.90;;;;;;5032923;28;20478;-73
2022/08/25 01:49:04;;;;;;;5.32;3.80;;;20.70;99.90;;;;;;5044124;28;20046;-78
2022/08/25 01:51:38;;;;;;;4.60;4.05;;;20.70;99.90;;;;;;5046602;28;20363;-78
2022/08/25 01:54:04;;;;;;;6.55;3.55;;;20.60;99.90;;;;;;5038280;28;20381;-77
2022/08/25 01:56:30;;;;;;;5.53;3.58;;;20.70;99.90;;;;;;5037888;28;20104;-77
2022/08/25 01:58:55;;;;;;;4.70;3.40;;;20.70;99.90;;;;;;5037292;28;20469;-77
2022/08/25 02:01:23;;;;;;;2.60;2.40;;;20.70;99.90;;;;;;5018903;28;20033;-77
2022/08/25 02:03:51;;;;;;;3.90;3.33;;;20.60;99.90;;;;;;5018902;28;20021;-75
2022/08/25 02:06:31;;;;;;;6.38;2.88;;;20.60;99.90;;;;;;5018878;28;20031;-75
2022/08/25 02:09:00;;;;;;;4.80;3.28;;;20.70;99.90;;;;;;5019035;28;20018;-75
2022/08/25 02:11:27;;;;;;;3.80;2.92;;;20.70;99.90;;;;;;5037043;28;20030;-74
2022/08/25 02:13:54;;;;;;;2.58;2.38;;;20.70;99.90;;;;;;5036444;28;20021;-74
2022/08/25 02:16:28;;;;;;;6.18;2.80;;;20.70;99.90;;;;;;5036668;28;20113;-75
2022/08/25 02:18:54;;;;;;;3.45;2.15;;;20.70;99.90;;;;;;5018700;28;20028;-75
2022/08/25 02:21:20;;;;;;;3.10;1.88;;;20.70;99.90;;;;;;5036279;28;20140;-75
2022/08/25 02:23:46;;;;;;;4.80;2.35;;;20.60;99.90;;;;;;5036185;28;20056;-75
2022/08/25 02:26:18;;;;;;;4.75;2.13;;;20.60;99.90;;;;;;5036252;28;20040;-75
2022/08/25 02:28:46;;;;;;;5.05;2.00;;;20.60;99.90;;;;;;5018729;28;20041;-75
2022/08/25 02:31:12;;;;;;;4.35;1.98;;;20.60;99.90;;;;;;5036546;28;20422;-75
2022/08/25 02:33:38;;;;;;;2.15;1.90;;;20.60;99.90;;;;;;5036195;28;20112;-75
2022/08/25 02:36:04;;;;;;;3.08;1.38;;;20.60;99.90;;;;;;5018526;28;20048;-75
2022/08/25 02:38:31;;;;;;;2.47;1.83;;;20.50;99.90;;;;;;5036148;28;20021;-75
2022/08/25 02:40:58;;;;;;;1.95;1.80;;;20.50;99.90;;;;;;5018312;28;20467;-75
2022/08/25 02:43:25;;;;;;;3.70;2.22;;;20.40;99.90;;;;;;5036045;28;20026;-75
2022/08/25 02:45:52;;;;;;;2.90;2.05;;;20.40;99.90;;;;;;5035935;28;20371;-75
2022/08/25 02:48:18;;;;;;;1.95;1.55;;;20.40;99.90;;;;;;5018203;28;20030;-75
2022/08/25 02:50:51;;;;;;;3.80;1.73;;;20.40;99.90;;;;;;5035976;28;20029;-76
2022/08/25 02:53:20;;;;;;;2.78;1.88;;;20.50;99.90;;;;;;5035840;28;20383;-77
2022/08/25 02:55:46;;;;;;;4.30;2.08;;;20.40;99.90;;;;;;5035630;28;20018;-77
2022/08/25 02:58:12;;;;;;;4.05;1.85;;;20.40;99.90;;;;;;5017535;28;20079;-77
2022/08/25 03:00:38;;;;;;;4.47;1.92;;;20.50;99.90;;;;;;5016824;28;20021;-76
2022/08/25 03:03:05;;;;;;;2.20;1.38;;;20.50;99.90;;;;;;5035245;28;20021;-77
2022/08/25 03:05:31;;;;;;;6.25;2.20;;;20.50;99.90;;;;;;5035311;28;20120;-77
2022/08/25 03:07:57;;;;;;;2.13;1.50;;;20.50;99.90;;;;;;5035362;28;20108;-77
2022/08/25 03:10:22;;;;;;;3.75;1.92;;;20.50;99.90;;;;;;5017617;28;20021;-77
2022/08/25 03:12:48;;;;;;;2.97;1.95;;;20.50;99.90;;;;;;5017489;28;20479;-77
2022/08/25 03:15:15;;;;;;;2.75;1.40;;;20.50;99.90;;;;;;5035236;28;20030;-77
2022/08/25 03:17:42;;;;;;;2.30;1.75;;;20.60;99.90;;;;;;5017440;28;20075;-77
2022/08/25 03:20:08;;;;;;;4.63;1.50;;;20.60;99.90;;;;;;5035663;28;20091;-77
2022/08/25 03:22:35;;;;;;;4.32;1.50;;;20.60;99.90;;;;;;5035577;28;20025;-77
2022/08/25 03:27:45;;;;;;;3.22;2.08;;;20.60;99.90;;;;;;5034982;28;20083;-77
2022/08/25 03:30:12;;;;;;;2.70;1.30;;;20.60;99.90;;;;;;5017152;28;20017;-77
2022/08/25 03:32:38;;;;;;;6.15;1.77;;;20.60;99.90;;;;;;5034866;28;20018;-77
2022/08/25 03:35:04;;;;;;;3.47;1.27;;;20.60;99.90;;;;;;5034785;28;20026;-77
2022/08/25 03:37:30;;;;;;;2.08;1.30;;;20.60;99.90;;;;;;5016980;28;20415;-77
2022/08/25 03:39:55;;;;;;;3.45;1.27;;;20.60;99.90;;;;;;5034777;28;20044;-77
2022/08/25 03:42:21;;;;;;;1.98;1.48;;;20.60;99.90;;;;;;5034654;28;20026;-76
2022/08/25 03:44:47;;;;;;;1.30;1.02;;;20.70;99.90;;;;;;5016903;28;20031;-77
2022/08/25 03:47:12;;;;;;;3.03;1.30;;;20.60;99.90;;;;;;5016604;28;20052;-77
2022/08/25 03:49:38;;;;;;;1.83;1.35;;;20.60;99.90;;;;;;5035195;28;20021;-77
2022/08/25 03:52:03;;;;;;;2.30;1.20;;;20.60;99.90;;;;;;5034368;28;20033;-77
2022/08/25 03:54:29;;;;;;;2.03;1.35;;;20.70;99.90;;;;;;5034613;28;20432;-77
2022/08/25 03:56:54;;;;;;;3.60;1.58;;;20.70;99.90;;;;;;5034962;28;20521;-77
2022/08/25 03:59:20;;;;;;;2.70;1.52;;;20.70;99.90;;;;;;5016600;28;20489;-77
2022/08/25 04:01:46;;;;;;;1.42;1.30;;;20.80;99.90;;;;;;5016659;28;20052;-77
2022/08/25 04:04:14;;;;;;;2.22;1.00;;;20.80;99.90;;;;;;5016579;28;20398;-77
2022/08/25 04:06:40;;;;;;;6.50;1.88;;;20.70;99.90;;;;;;5034083;28;20025;-76
2022/08/25 04:09:07;;;;;;;3.17;1.10;;;20.70;99.90;;;;;;5034225;28;20029;-77
2022/08/25 04:11:32;;;;;;;2.25;0.70;;;20.70;99.90;;;;;;5016037;28;20026;-77
2022/08/25 04:14:01;;;;;;;1.38;0.90;;;20.70;99.90;;;;;;5034567;28;20478;-77
2022/08/25 04:16:30;;;;;;;4.20;1.13;;;20.70;99.90;;;;;;5034338;28;20076;-77
2022/08/25 04:18:58;;;;;;;1.73;1.20;;;20.70;99.90;;;;;;5033908;28;20021;-77
2022/08/25 04:21:24;;;;;;;4.15;1.20;;;20.70;99.90;;;;;;5016285;28;20021;-77
2022/08/25 04:23:51;;;;;;;2.75;1.52;;;20.70;99.90;;;;;;5035727;28;20040;-78
2022/08/25 04:26:29;;;;;;;3.78;0.90;;;20.70;99.90;;;;;;5036409;28;20036;-78
2022/08/25 04:28:58;;;;;;;2.13;1.02;;;20.70;99.90;;;;;;5037155;28;20072;-78
2022/08/25 04:31:24;;;;;;;3.30;1.10;;;20.70;99.90;;;;;;5036027;28;20088;-78
2022/08/25 04:33:50;;;;;;;3.05;0.70;;;20.70;99.90;;;;;;5035852;28;20064;-78
2022/08/25 04:36:17;;;;;;;3.70;1.10;;;20.60;99.90;;;;;;5035939;28;20030;-78
2022/08/25 04:38:44;;;;;;;3.67;0.60;;;20.70;99.90;;;;;;5035065;28;20021;-78
2022/08/25 04:41:12;;;;;;;1.67;1.23;;;20.60;99.90;;;;;;5034938;28;20036;-78
2022/08/25 04:43:39;;;;;;;1.98;0.38;;;20.60;99.90;;;;;;5017481;28;20021;-77
2022/08/25 04:46:11;;;;;;;0.82;0.50;;;20.60;99.90;;;;;;5016587;28;20024;-78
2022/08/25 04:48:38;;;;;;;4.28;0.70;;;20.60;99.90;;;;;;5016785;28;20407;-78
2022/08/25 04:51:10;;;;;;;1.48;0.82;;;20.60;99.90;;;;;;5035416;28;20148;-78
2022/08/25 04:53:37;;;;;;;2.17;0.68;;;20.60;99.90;;;;;;5017171;28;20368;-78
2022/08/25 04:56:09;;;;;;;3.28;0.75;;;20.60;99.90;;;;;;5016760;28;20029;-77
2022/08/25 04:58:35;;;;;;;4.43;0.95;;;20.50;99.90;;;;;;5034705;28;20025;-78
2022/08/25 05:01:09;;;;;;;1.92;0.98;;;20.50;99.90;;;;;;5034535;28;20429;-78
2022/08/25 05:03:35;;;;;;;3.17;0.68;;;20.50;99.90;;;;;;5034652;28;20471;-78
2022/08/25 05:06:01;;;;;;;2.63;0.63;;;20.50;99.90;;;;;;5035200;28;20017;-77
2022/08/25 05:08:26;;;;;;;4.78;1.00;;;20.50;99.90;;;;;;5034647;28;20021;-78
2022/08/25 05:10:55;;;;;;;1.13;0.57;;;20.50;99.90;;;;;;5033948;28;20474;-77
2022/08/25 05:13:21;;;;;;;1.42;0.70;;;20.60;99.90;;;;;;5037602;28;20375;-78
2022/08/25 05:15:56;;;;;;;2.70;1.02;;;20.50;99.90;;;;;;5035411;28;20423;-78
2022/08/25 05:18:24;;;;;;;1.60;0.93;;;20.60;99.90;;;;;;5016514;28;20021;-78
2022/08/25 05:20:52;;;;;;;2.88;0.75;;;20.60;99.90;;;;;;5033200;28;20033;-74
2022/08/25 05:23:19;;;;;;;1.75;1.05;;;20.90;99.90;;;;;;5035363;28;20028;-74
2022/08/25 05:25:45;;;;;;;3.42;1.08;;;20.60;99.90;;;;;;5019443;28;20495;-75
2022/08/25 05:28:11;;;;;;;2.55;1.20;;;20.60;99.90;;;;;;5036994;28;20037;-74
2022/08/25 05:30:39;;;;;;;2.45;0.88;;;20.70;99.90;;;;;;5037313;28;20022;-74
2022/08/25 05:33:05;;;;;;;1.85;0.57;;;20.70;99.90;;;;;;5037144;28;20017;-74
2022/08/25 05:35:30;;;;;;;1.23;0.60;;;20.80;99.90;;;;;;5019311;28;20036;-74
2022/08/25 05:37:56;;;;;;;2.22;0.90;;;20.80;99.90;;;;;;5019197;28;20026;-74
2022/08/25 05:40:23;;;;;;;2.05;0.50;;;20.80;99.90;;;;;;5019158;28;20017;-74
2022/08/25 05:42:49;;;;;;;3.03;0.85;;;20.80;99.90;;;;;;5019039;28;20036;-74
2022/08/25 05:45:16;;;;;;;4.75;0.80;;;20.90;99.90;;;;;;5036782;28;20030;-74
2022/08/25 05:47:42;;;;;;;2.53;0.60;;;20.90;99.90;;;;;;5036868;28;20036;-75
2022/08/25 05:50:08;;;;;;;3.35;0.70;;;21.00;99.90;;;;;;5036843;28;20021;-75
2022/08/25 05:52:34;;;;;;;2.83;0.50;;;21.10;99.90;;;;;;5036996;28;20021;-75
2022/08/25 05:54:59;;;;;;;1.98;1.00;;;21.20;99.90;;;;;;5018965;28;20075;-75
2022/08/25 05:57:25;;;;;;;1.30;0.52;;;21.40;99.90;;;;;;5036824;28;20386;-75
2022/08/25 05:59:50;;;;;;;2.30;0.50;;;21.40;99.90;;;;;;5018699;28;20017;-75
2022/08/25 06:05:00;;;;;;;0.55;0.38;;;21.60;99.90;;;;;;5037256;28;20421;-75
2022/08/25 06:07:26;;;;;;;2.85;0.60;;;21.70;99.90;;;;;;5036550;28;20033;-76
2022/08/25 06:09:51;;;;;;;2.35;0.60;;;21.80;99.90;;;;;;5036329;28;20053;-76
2022/08/25 06:12:17;;;;;;;2.70;0.38;;;21.90;99.90;;;;;;5036135;28;20018;-76
2022/08/25 06:14:43;;;;;;;2.78;0.65;;;22.00;99.90;;;;;;5018544;28;20471;-75
2022/08/25 06:17:09;;;;;;;0.77;0.30;;;22.10;99.90;;;;;;5018377;28;20041;-75
2022/08/25 06:19:35;;;;;;;1.27;0.50;;;22.20;99.90;;;;;;5036473;28;20477;-75
2022/08/25 06:22:00;;;;;;;3.00;0.73;;;22.30;99.90;;;;;;5036188;28;20034;-75
2022/08/25 06:24:27;;;;;;;1.70;0.30;;;22.30;99.90;;;;;;5036049;28;20061;-75
2022/08/25 06:26:53;;;;;;;1.75;0.45;;;22.50;99.90;;;;;;5018200;28;20079;-76
2022/08/25 06:29:19;;;;;;;3.05;0.40;;;22.60;99.90;;;;;;5036420;28;20200;-76
2022/08/25 06:31:45;;;;;;;2.50;0.20;;;22.70;99.90;;;;;;5035957;28;20068;-76
2022/08/25 06:34:12;;;;;;;4.93;1.05;;;22.70;99.90;;;;;;5036016;28;20021;-76
2022/08/25 06:36:39;;;;;;;1.95;0.47;;;22.80;99.90;;;;;;5035867;28;20026;-74
2022/08/25 06:39:05;;;;;;;3.95;0.93;;;22.80;99.90;;;;;;5035830;28;20017;-74
2022/08/25 06:41:31;;;;;;;1.55;0.17;;;22.80;99.90;;;;;;5035855;28;20402;-74
2022/08/25 06:43:57;;;;;;;5.30;0.75;;;22.70;99.90;;;;;;5036045;28;20018;-74
2022/08/25 06:46:29;;;;;;;5.28;1.27;;;22.70;99.90;;;;;;5036122;28;20128;-74
2022/08/25 06:48:56;;;;;;;1.50;0.30;;;22.80;99.90;;;;;;5035611;28;20100;-74
2022/08/25 06:51:24;;;;;;;1.85;0.22;;;22.80;99.90;;;;;;5035660;28;20025;-74
2022/08/25 06:53:51;;;;;;;3.10;0.20;;;23.00;99.90;;;;;;5035597;28;20040;-74
2022/08/25 06:56:18;;;;;;;2.55;0.70;;;23.10;99.90;;;;;;5035553;28;20009;-74
2022/08/25 06:58:44;;;;;;;2.85;0.38;;;23.30;99.90;;;;;;5036068;28;20025;-74
2022/08/25 07:01:11;;;;;;;2.13;0.35;;;23.50;99.90;;;;;;5035645;28;20367;-74
2022/08/25 07:03:36;;;;;;;3.15;0.28;;;23.70;99.90;;;;;;5035388;28;20022;-74
2022/08/25 07:06:03;;;;;;;1.15;0.10;;;23.90;99.90;;;;;;5035461;28;20098;-74
2022/08/25 07:08:29;;;;;;;2.22;0.32;;;24.10;99.90;;;;;;5035034;28;20486;-74
2022/08/25 07:10:54;;;;;;;1.02;0.10;;;24.10;99.90;;;;;;5035294;28;20553;-74
2022/08/25 07:13:20;;;;;;;1.55;0.43;;;24.50;99.90;;;;;;5017479;28;20049;-74
2022/08/25 07:15:46;;;;;;;2.75;0.30;;;24.50;99.90;;;;;;5035418;28;20017;-74
2022/08/25 07:18:12;;;;;;;5.50;0.55;;;24.60;99.90;;;;;;5035159;28;20447;-74
2022/08/25 07:20:39;;;;;;;0.93;0.20;;;24.70;99.60;;;;;;5035020;28;20021;-74
2022/08/25 07:23:06;;;;;;;3.78;0.52;;;24.80;99.30;;;;;;5035016;28;20021;-74
2022/08/25 07:25:33;;;;;;;3.10;0.30;;;24.80;98.80;;;;;;5035171;28;20425;-74
2022/08/25 07:27:58;;;;;;;1.20;0.10;;;24.90;98.70;;;;;;5034929;28;20018;-74
2022/08/25 07:30:24;;;;;;;2.85;0.28;;;25.00;98.50;;;;;;5035416;28;20088;-74
2022/08/25 07:32:50;;;;;;;1.38;0.30;;;25.10;98.40;;;;;;5034882;28;20022;-74
2022/08/25 07:35:16;;;;;;;1.92;0.30;;;25.20;97.40;;;;;;5034858;28;20022;-74
2022/08/25 07:37:47;;;;;;;1.45;0.45;;;25.20;97.40;;;;;;5016910;28;20025;-74
2022/08/25 07:40:16;;;;;;;1.85;0.40;;;25.40;97.00;;;;;;5034790;28;20033;-74
2022/08/25 07:42:43;;;;;;;2.00;0.05;;;25.40;96.20;;;;;;5034737;28;20029;-74
2022/08/25 07:45:10;;;;;;;3.72;0.13;;;25.40;96.80;;;;;;5034074;28;20029;-74
2022/08/25 07:47:37;;;;;;;1.00;0.28;;;25.50;96.90;;;;;;5034610;28;20495;-77
2022/08/25 07:50:04;;;;;;;0.30;0.10;;;25.60;96.90;;;;;;5034660;28;20049;-77
2022/08/25 07:52:29;;;;;;;4.45;0.10;;;25.70;97.10;;;;;;5035495;28;20026;-77
2022/08/25 07:54:55;;;;;;;1.20;0.10;;;25.80;96.10;;;;;;5018149;28;20020;-77
2022/08/25 07:57:23;;;;;;;6.85;0.10;;;25.90;96.20;;;;;;5018555;28;20116;-77
2022/08/25 07:59:49;;;;;;;2.92;0.28;;;26.00;96.00;;;;;;5018016;28;20036;-77
2022/08/25 08:02:14;;;;;;;2.72;0.55;;;26.10;96.20;;;;;;5035685;28;20378;-77
2022/08/25 08:04:41;;;;;;;1.70;0.30;;;26.20;95.90;;;;;;5018425;28;20465;-77
2022/08/25 08:07:07;;;;;;;2.05;0.45;;;26.30;95.30;;;;;;5035849;28;20426;-76
2022/08/25 08:09:32;;;;;;;3.13;0.45;;;26.50;94.90;;;;;;5035527;28;20017;-76
2022/08/25 08:11:58;;;;;;;3.70;0.20;;;26.60;94.40;;;;;;5018056;28;20104;-76
2022/08/25 08:14:23;;;;;;;3.08;0.20;;;26.60;93.90;;;;;;5035252;28;20494;-77
2022/08/25 08:16:49;;;;;;;4.88;0.30;;;26.60;94.00;;;;;;5035307;28;20032;-77
2022/08/25 08:19:16;;;;;;;2.78;0.10;;;26.80;93.70;;;;;;5035044;28;20044;-76
2022/08/25 08:21:41;;;;;;;2.90;0.17;;;26.80;93.30;;;;;;5017177;28;20490;-76
2022/08/25 08:24:07;;;;;;;7.32;0.28;;;26.90;93.30;;;;;;5034809;28;20022;-76
2022/08/25 08:26:33;;;;;;;3.03;0.10;;;26.90;93.20;;;;;;5034853;28;20068;-76
2022/08/25 08:28:59;;;;;;;0.57;0.25;;;27.00;92.90;;;;;;5017495;28;20486;-76
2022/08/25 08:31:27;;;;;;;4.72;0.40;;;27.10;92.90;;;;;;5034963;28;20056;-76
2022/08/25 08:33:54;;;;;;;1.03;0.20;;;27.30;92.50;;;;;;5017207;28;20028;-76
2022/08/25 08:36:21;;;;;;;4.25;0.17;;;27.40;92.50;;;;;;5034886;28;20018;-76
2022/08/25 08:38:47;;;;;;;3.35;0.30;;;27.50;91.90;;;;;;5035007;28;20057;-76
2022/08/25 08:44:25;;;;;;;0.30;0.30;;;27.70;92.30;;;;;;5034738;28;20059;-77
2022/08/25 08:47:10;;;;;;;0.32;0.10;;;27.80;91.90;;;;;;5034956;28;20051;-77
2022/08/25 08:49:53;;;;;;;5.40;0.10;;;28.00;91.00;;;;;;5016706;28;20026;-76
2022/08/25 08:52:32;;;;;;;1.52;0.10;;;28.10;90.70;;;;;;5034379;28;20034;-76
2022/08/25 08:55:04;;;;;;;2.33;0.10;;;28.20;90.00;;;;;;5034486;28;20378;-77
2022/08/25 08:57:39;;;;;;;2.58;0.20;;;28.30;89.30;;;;;;5015914;28;20552;-76
2022/08/25 09:00:07;;;;;;;2.40;0.10;;;28.30;88.70;;;;;;5016748;28;20029;-76
2022/08/25 09:02:56;;;;;;;1.67;0.15;;;28.50;88.50;;;;;;5034445;28;20025;-76
2022/08/25 09:05:26;;;;;;;0.75;0.28;;;28.60;87.10;;;;;;5015879;28;20398;-77
2022/08/25 09:08:03;;;;;;;2.25;0.50;;;28.70;85.80;;;;;;5016681;28;20017;-77
2022/08/25 09:10:40;;;;;;;1.35;0.30;;;28.70;85.50;;;;;;5033975;28;20029;-77
2022/08/25 09:13:20;;;;;;;1.25;0.10;;;28.80;84.50;;;;;;5034282;28;20045;-77
2022/08/25 09:19:01;;;;;;;4.07;0.17;;;28.90;83.00;;;;;;5034661;28;20091;-77
2022/08/25 09:21:48;;;;;;;0.88;0.10;;;29.00;82.40;;;;;;5033877;28;20533;-77
2022/08/25 09:24:37;;;;;;;0.60;0.15;;;29.10;81.60;;;;;;5016150;28;20059;-77
2022/08/25 09:27:20;;;;;;;1.25;0.00;;;29.20;80.40;;;;;;5005989;28;20041;-77
2022/08/25 09:30:05;;;;;;;0.98;0.32;;;29.40;80.00;;;;;;5016107;28;20029;-77
2022/08/25 09:32:40;;;;;;;0.82;0.10;;;29.50;79.20;;;;;;5016240;28;20025;-76
2022/08/25 09:35:12;;;;;;;2.67;0.35;;;29.60;78.40;;;;;;5033967;28;20044;-76
2022/08/25 09:37:37;;;;;;;2.58;0.10;;;29.60;77.10;;;;;;5033811;28;20108;-77
2022/08/25 09:40:03;;;;;;;2.05;0.05;;;29.70;77.20;;;;;;5033853;28;20060;-77
2022/08/25 09:42:54;;;;;;;2.28;0.20;;;29.90;76.60;;;;;;5034028;28;20473;-77
2022/08/25 09:45:43;;;;;;;0.82;0.20;;;29.90;75.50;;;;;;5034119;28;20053;-77
2022/08/25 09:48:25;;;;;;;6.63;0.20;;;30.00;75.00;;;;;;5033449;28;20088;-77
2022/08/25 09:51:00;;;;;;;0.73;0.30;;;30.00;74.80;;;;;;5033536;28;20018;-76
2022/08/25 09:53:26;;;;;;;0.20;0.00;;;30.10;74.90;;;;;;5034130;28;20067;-76
2022/08/25 09:55:59;;;;;;;2.60;0.20;;;30.20;74.50;;;;;;5033767;28;20024;-76
2022/08/25 09:58:24;;;;;;;1.80;0.10;;;30.20;72.80;;;;;;5033565;28;20045;-76
2022/08/25 10:01:13;;;;;;;0.80;0.45;;;30.20;73.60;;;;;;5016025;28;20032;-77
2022/08/25 10:03:56;;;;;;;2.78;0.10;;;30.40;74.00;;;;;;5015817;28;20025;-77
2022/08/25 10:06:22;;;;;;;3.30;0.70;;;30.50;72.40;;;;;;5015461;28;20509;-77
2022/08/25 10:08:48;;;;;;;2.60;0.00;;;30.60;72.50;;;;;;5035130;28;20014;-77
2022/08/25 10:11:33;;;;;;;3.50;0.20;;;30.70;71.00;;;;;;5037112;28;20028;-77
2022/08/25 10:14:05;;;;;;;0.55;0.20;;;30.90;70.60;;;;;;5037186;28;20018;-77
2022/08/25 10:16:31;;;;;;;1.48;0.10;;;31.00;70.70;;;;;;5037502;28;20048;-77
2022/08/25 10:19:08;;;;;;;1.38;0.10;;;31.10;69.50;;;;;;5037064;28;20025;-77
2022/08/25 10:21:37;;;;;;;1.73;0.20;;;31.30;67.10;;;;;;5019443;28;20426;-77
2022/08/25 10:24:04;;;;;;;0.40;0.22;;;31.40;68.50;;;;;;5037246;28;20029;-77
2022/08/25 10:27:00;;;;;;;0.82;0.20;;;31.50;67.90;;;;;;5036965;28;20052;-77
2022/08/25 10:29:59;;;;;;;3.90;0.47;;;31.60;68.70;;;;;;5001520;28;20538;-77
2022/08/25 10:32:50;;;;;;;0.70;0.20;;;31.90;67.60;;;;;;5036580;28;20082;-77
2022/08/25 10:35:26;;;;;;;1.65;0.20;;;32.00;66.90;;;;;;5019035;28;20021;-77
2022/08/25 10:38:21;;;;;;;1.15;0.00;;;32.10;64.20;;;;;;5037771;28;20100;-77
2022/08/25 10:41:03;;;;;;;0.65;0.00;;;32.20;62.90;;;;;;4996144;28;20038;-77
2022/08/25 10:43:48;;;;;;;4.95;0.30;;;32.20;63.40;;;;;;5036663;28;20025;-77
2022/08/25 10:46:23;;;;;;;0.63;0.00;;;32.20;63.70;;;;;;5036471;28;20034;-77
2022/08/25 10:49:10;;;;;;;3.03;0.00;;;32.30;62.50;;;;;;5018142;28;20138;-77
2022/08/25 10:52:00;;;;;;;1.23;0.10;;;32.40;60.80;;;;;;5036526;28;20017;-77
2022/08/25 10:54:34;;;;;;;0.63;0.10;;;32.40;59.80;;;;;;5036195;28;20471;-77
2022/08/25 10:57:16;;;;;;;1.98;0.10;;;32.40;59.90;;;;;;5036112;28;20037;-77
2022/08/25 10:59:57;;;;;;;0.60;0.10;;;32.50;58.60;;;;;;5018023;28;20167;-77
2022/08/25 11:02:34;;;;;;;0.65;0.00;;;32.70;58.40;;;;;;5035438;28;20029;-77
2022/08/25 11:05:23;;;;;;;3.13;0.10;;;32.80;56.20;;;;;;5035746;28;20040;-77
2022/08/25 11:08:15;;;;;;;7.05;0.57;;;32.90;55.10;;;;;;5017701;28;20037;-77
2022/08/25 11:10:51;;;;;;;0.32;0.00;;;33.00;55.70;;;;;;4989147;28;20053;-77
2022/08/25 11:13:24;;;;;;;1.05;0.25;;;33.10;55.90;;;;;;5035404;28;20025;-77
2022/08/25 11:15:55;;;;;;;1.33;0.10;;;33.10;55.10;;;;;;5035354;28;20117;-77
2022/08/25 11:18:22;;;;;;;1.42;0.00;;;33.00;55.30;;;;;;5035047;28;20022;-77
2022/08/25 11:21:08;;;;;;;1.87;0.00;;;33.10;53.80;;;;;;5034319;28;20372;-77
2022/08/25 11:23:43;;;;;;;1.65;0.68;;;32.90;54.60;;;;;;5035308;28;20080;-77
2022/08/25 11:26:26;;;;;;;5.55;0.10;;;32.70;54.20;;;;;;5035440;28;20071;-77
2022/08/25 11:29:12;;;;;;;0.35;0.00;;;32.60;55.20;;;;;;5017410;28;20530;-77
2022/08/25 11:31:41;;;;;;;5.22;0.77;;;32.60;54.40;;;;;;5017866;28;20030;-78
2022/08/25 11:34:15;;;;;;;1.75;0.00;;;32.50;55.50;;;;;;5035397;28;20466;-78
2022/08/25 11:36:54;;;;;;;1.70;0.10;;;32.60;57.30;;;;;;5035448;28;20025;-79
2022/08/25 11:39:41;;;;;;;0.32;0.10;;;32.70;56.30;;;;;;5035386;28;20113;-78
2022/08/25 11:42:26;;;;;;;3.60;0.20;;;32.80;57.70;;;;;;5035546;28;20155;-77
2022/08/25 11:45:01;;;;;;;1.75;0.00;;;32.90;58.00;;;;;;5035146;28;20022;-77
2022/08/25 11:47:32;;;;;;;1.17;0.10;;;32.90;56.70;;;;;;5016673;28;20029;-77
2022/08/25 11:50:03;;;;;;;3.40;0.00;;;33.00;56.70;;;;;;5034841;28;20044;-78
2022/08/25 11:52:31;;;;;;;0.88;0.10;;;33.30;56.80;;;;;;5034345;28;20025;-78
2022/08/25 11:55:17;;;;;;;2.40;0.10;;;33.50;56.20;;;;;;5034184;28;20021;-77
2022/08/25 11:57:46;;;;;;;1.33;0.77;;;33.60;55.70;;;;;;5034479;28;20113;-77
2022/08/25 12:00:33;;;;;;;0.52;0.10;;;33.50;55.70;;;;;;5034302;28;20022;-77
2022/08/25 12:03:00;;;;;;;3.03;0.40;;;33.30;55.80;;;;;;5016348;28;20116;-77
2022/08/25 12:05:28;;;;;;;3.83;0.15;;;33.20;55.20;;;;;;5034531;28;20025;-77
2022/08/25 12:11:01;;;;;;;4.00;0.10;;;33.90;54.00;;;;;;5033961;28;20032;-77
2022/08/25 12:13:42;;;;;;;1.15;0.00;;;34.20;52.40;;;;;;5016440;28;20112;-77
2022/08/25 12:16:34;;;;;;;2.15;0.17;;;34.50;53.70;;;;;;5034695;28;20023;-78
2022/08/25 12:19:34;;;;;;;0.57;0.00;;;34.90;52.30;;;;;;5011506;28;20041;-77
2022/08/25 12:22:02;;;;;;;2.10;0.08;;;35.00;50.90;;;;;;5028999;28;20483;-77
2022/08/25 12:24:43;;;;;;;2.30;0.10;;;35.10;51.60;;;;;;5018935;28;20048;-77
2022/08/25 12:27:09;;;;;;;3.28;0.90;;;35.40;51.40;;;;;;5004581;28;20044;-78
2022/08/25 12:29:49;;;;;;;2.85;0.10;;;35.50;50.30;;;;;;5014089;28;20093;-78
2022/08/25 12:32:45;;;;;;;1.67;0.10;;;35.70;49.90;;;;;;5012748;28;20022;-78
2022/08/25 12:35:28;;;;;;;4.95;0.45;;;36.00;51.50;;;;;;5014449;28;20030;-78
2022/08/25 12:38:07;;;;;;;2.78;0.45;;;36.10;48.10;;;;;;5013942;28;20037;-77
2022/08/25 12:40:42;;;;;;;3.22;0.40;;;36.10;46.90;;;;;;5032289;28;20077;-78
2022/08/25 12:43:10;;;;;;;1.85;0.32;;;35.90;47.20;;;;;;5033718;28;20029;-78
2022/08/25 12:45:42;;;;;;;0.60;0.10;;;35.70;48.80;;;;;;5034001;28;20022;-78
2022/08/25 12:48:26;;;;;;;1.92;0.08;;;35.70;48.70;;;;;;5033730;28;20464;-78
2022/08/25 12:51:04;;;;;;;0.68;0.00;;;35.90;47.90;;;;;;5033961;28;20026;-78
2022/08/25 12:53:58;;;;;;;1.17;0.30;;;36.20;47.80;;;;;;5033868;28;20048;-78
2022/08/25 12:56:48;;;;;;;2.25;0.10;;;36.30;46.40;;;;;;5020426;28;20025;-78
2022/08/25 12:59:20;;;;;;;0.73;0.00;;;36.50;46.30;;;;;;5034202;28;20100;-78
2022/08/25 13:02:06;;;;;;;0.10;0.00;;;36.50;46.80;;;;;;5033708;28;20135;-78
2022/08/25 13:05:00;;;;;;;0.28;0.00;;;36.30;47.20;;;;;;5015814;28;20025;-78
2022/08/25 13:08:06;;;;;;;3.75;0.10;;;36.50;45.90;;;;;;5033827;28;20072;-77
2022/08/25 13:10:49;;;;;;;3.33;0.65;;;36.30;45.40;;;;;;5033892;28;20026;-77
2022/08/25 13:13:23;;;;;;;0.90;0.13;;;36.40;48.40;;;;;;5015646;28;20390;-77
2022/08/25 13:16:05;;;;;;;3.50;0.00;;;36.70;47.60;;;;;;5015691;28;20018;-77
2022/08/25 13:18:34;;;;;;;0.50;0.20;;;36.80;45.00;;;;;;5033478;28;20028;-77
2022/08/25 13:21:16;;;;;;;0.10;0.00;;;37.00;45.00;;;;;;5033416;28;20397;-77
2022/08/25 13:23:48;;;;;;;3.30;0.10;;;37.20;46.40;;;;;;5015397;28;20033;-77
2022/08/25 13:26:38;;;;;;;1.80;0.00;;;37.40;45.70;;;;;;5033684;28;20490;-77